Time;durP1;ratioP1;P1;durP2;ratioP2;P2;SDS_P1;SDS_P2;PMS_P1;PMS_P2;Temp;Humidity;BMP_temperature;BMP_pressure;BME280_temperature;BME280_humidity;BME280_pressure;Samples;Min_cycle;Max_cycle;Signal;HPM_P1;HPM_P2
2022/12/31 00:01:44;;;;;;;2.28;1.33;;;;;;;14.92;76.40;98576.19;5031509;28;20353;-80
2022/12/31 00:04:11;;;;;;;1.98;1.35;;;;;;;14.90;76.47;98578.16;5031683;28;20053;-80
2022/12/31 00:06:37;;;;;;;2.47;1.33;;;;;;;14.88;76.26;98588.06;5031329;28;20064;-80
2022/12/31 00:09:05;;;;;;;1.92;1.55;;;;;;;14.84;76.15;98594.66;5031476;28;20057;-80
2022/12/31 00:11:33;;;;;;;2.33;1.58;;;;;;;14.79;76.43;98591.56;5031355;28;20104;-80
2022/12/31 00:14:00;;;;;;;4.28;1.70;;;;;;;14.74;76.44;98586.69;5013546;28;20085;-80
2022/12/31 00:16:32;;;;;;;1.70;1.60;;;;;;;14.67;76.56;98585.59;5013046;28;20061;-80
2022/12/31 00:18:59;;;;;;;1.77;1.67;;;;;;;14.61;77.20;98588.81;5031486;28;20053;-80
2022/12/31 00:21:28;;;;;;;3.38;2.00;;;;;;;14.55;77.27;98590.22;5031098;28;20058;-80
2022/12/31 00:23:55;;;;;;;2.13;1.92;;;;;;;14.49;77.96;98585.47;5031256;28;20060;-80
2022/12/31 00:26:25;;;;;;;3.35;2.03;;;;;;;14.44;78.15;98577.97;5030990;28;20063;-80
2022/12/31 00:28:53;;;;;;;2.58;2.38;;;;;;;14.37;78.53;98580.34;5030816;28;20061;-80
2022/12/31 00:31:38;;;;;;;2.58;2.33;;;;;;;14.34;78.94;98583.28;5031058;28;20088;-80
2022/12/31 00:34:05;;;;;;;2.90;2.42;;;;;;;14.32;78.98;98564.88;5030989;28;20412;-80
2022/12/31 00:36:36;;;;;;;3.17;2.83;;;;;;;14.30;79.31;98560.72;5030792;28;20088;-80
2022/12/31 00:39:04;;;;;;;3.30;3.00;;;;;;;14.30;79.35;98571.28;5031217;28;20061;-80
2022/12/31 00:41:31;;;;;;;4.30;2.90;;;;;;;14.28;79.49;98568.78;5030672;28;20500;-80
2022/12/31 00:43:58;;;;;;;4.43;4.03;;;;;;;14.28;79.56;98571.44;5030657;28;20482;-80
2022/12/31 00:46:25;;;;;;;4.03;3.72;;;;;;;14.26;79.80;98564.59;5013192;28;20108;-80
2022/12/31 00:48:52;;;;;;;5.85;4.70;;;;;;;14.26;80.00;98567.25;5030530;28;20058;-80
2022/12/31 00:51:22;;;;;;;6.18;5.60;;;;;;;14.24;79.95;98564.75;5031102;28;20557;-80
2022/12/31 00:53:48;;;;;;;6.20;5.60;;;;;;;14.27;80.16;98563.63;5030282;28;20081;-80
2022/12/31 00:56:18;;;;;;;6.07;5.53;;;;;;;14.26;80.16;98569.91;5030424;28;20507;-80
2022/12/31 00:58:45;;;;;;;5.97;5.38;;;;;;;14.26;80.13;98552.22;5012807;28;20057;-80
2022/12/31 01:01:19;;;;;;;6.90;6.20;;;;;;;14.23;80.38;98557.78;5012755;28;20136;-80
2022/12/31 01:03:49;;;;;;;6.57;5.97;;;;;;;14.26;80.55;98556.66;5030328;28;20049;-80
2022/12/31 01:06:15;;;;;;;7.03;6.43;;;;;;;14.25;80.64;98557.66;5030380;28;20054;-80
2022/12/31 01:08:42;;;;;;;7.18;6.47;;;;;;;14.28;80.86;98557.38;5030108;28;20057;-80
2022/12/31 01:11:21;;;;;;;6.97;6.00;;;;;;;14.28;80.61;98568.78;5030438;28;20490;-79
2022/12/31 01:13:49;;;;;;;5.97;5.35;;;;;;;14.29;80.57;98562.53;5030169;28;20107;-80
2022/12/31 01:16:18;;;;;;;7.10;5.57;;;;;;;14.32;80.71;98570.16;5029440;28;20060;-79
2022/12/31 01:18:44;;;;;;;6.50;5.90;;;;;;;14.35;80.80;98568.25;5029977;28;20531;-80
2022/12/31 01:21:12;;;;;;;5.30;4.80;;;;;;;14.35;80.85;98569.06;5012010;28;20530;-80
2022/12/31 01:23:39;;;;;;;5.57;5.07;;;;;;;14.37;80.84;98567.13;5030115;28;20080;-80
2022/12/31 01:26:08;;;;;;;5.22;4.72;;;;;;;14.38;80.74;98560.84;5029597;28;20082;-80
2022/12/31 01:28:35;;;;;;;5.07;4.60;;;;;;;14.41;80.88;98573.81;5029733;28;20111;-80
2022/12/31 01:31:06;;;;;;;5.97;5.40;;;;;;;14.40;80.49;98569.50;5029769;28;20531;-80
2022/12/31 01:33:33;;;;;;;7.13;5.38;;;;;;;14.43;80.62;98563.06;5029579;28;20551;-80
2022/12/31 01:36:07;;;;;;;7.15;6.55;;;;;;;14.43;80.71;98571.84;5029708;28;20064;-80
2022/12/31 01:38:34;;;;;;;6.93;6.25;;;;;;;14.46;80.69;98555.66;5029352;28;20116;-79
2022/12/31 01:41:02;;;;;;;6.72;5.93;;;;;;;14.45;80.80;98559.31;5029606;28;20065;-80
2022/12/31 01:43:50;;;;;;;7.28;6.57;;;;;;;14.44;80.57;98562.09;5029603;28;20053;-80
2022/12/31 01:46:24;;;;;;;7.00;6.40;;;;;;;14.46;80.71;98571.56;5029555;28;20412;-80
2022/12/31 01:48:55;;;;;;;6.72;6.00;;;;;;;14.45;80.70;98564.59;5029456;28;20573;-80
2022/12/31 01:51:24;;;;;;;6.97;6.35;;;;;;;14.48;80.65;98582.00;5012057;28;20076;-80
2022/12/31 01:53:51;;;;;;;19.63;6.72;;;;;;;14.48;80.78;98573.22;5029205;28;20065;-80
2022/12/31 01:56:21;;;;;;;7.38;6.68;;;;;;;14.48;80.92;98579.34;5029165;28;20115;-80
2022/12/31 01:58:50;;;;;;;7.47;6.70;;;;;;;14.46;81.00;98571.56;5029124;28;20063;-80
2022/12/31 02:01:23;;;;;;;7.43;6.63;;;;;;;14.45;80.86;98577.00;5029727;28;20065;-80
2022/12/31 02:03:50;;;;;;;;;;;;;;;14.47;80.58;98572.41;5029944;28;20096;-80
2022/12/31 02:06:24;;;;;;;6.95;6.10;;;;;;;14.50;80.57;98565.97;5011714;28;19929;-80
2022/12/31 02:08:50;;;;;;;8.18;5.88;;;;;;;14.51;81.00;98549.97;5029178;28;20058;-81
2022/12/31 02:11:19;;;;;;;10.50;6.18;;;;;;;14.47;80.93;98551.22;5028853;28;20069;-80
2022/12/31 02:13:46;;;;;;;6.28;5.65;;;;;;;14.46;81.04;98529.19;5011397;28;20119;-81
2022/12/31 04:50:05;;;;;;;0.95;0.70;;;;;;;13.55;81.25;98599.09;5039961;22;20466;-73
2022/12/31 04:52:33;;;;;;;0.65;0.65;;;;;;;13.57;81.13;98598.97;5031786;28;20495;-73
2022/12/31 04:55:07;;;;;;;0.70;0.70;;;;;;;13.59;81.34;98595.22;5031589;28;20069;-73
2022/12/31 04:57:34;;;;;;;0.60;0.60;;;;;;;13.59;81.29;98602.28;5031458;28;20061;-73
2022/12/31 05:00:00;;;;;;;0.75;0.75;;;;;;;13.61;81.31;98597.72;5031597;28;20141;-73
2022/12/31 05:02:28;;;;;;;0.70;0.70;;;;;;;13.61;81.20;98601.19;5071423;23;20077;-81
2022/12/31 05:04:55;;;;;;;0.60;0.60;;;;;;;13.63;81.13;98598.41;5030431;28;20052;-81
2022/12/31 05:07:21;;;;;;;0.77;0.60;;;;;;;13.64;81.35;98595.63;5012955;28;20057;-81
2022/12/31 05:09:48;;;;;;;0.60;0.60;;;;;;;13.66;81.24;98592.84;5013733;28;20119;-81
2022/12/31 05:12:14;;;;;;;0.60;0.60;;;;;;;13.67;81.29;98594.53;5013278;28;20054;-81
2022/12/31 05:14:40;;;;;;;0.77;0.77;;;;;;;13.67;81.13;98584.78;5028162;28;20550;-81
2022/12/31 05:17:07;;;;;;;0.60;0.60;;;;;;;13.68;81.11;98589.09;5030387;28;20083;-81
2022/12/31 05:19:33;;;;;;;0.70;0.70;;;;;;;13.68;81.03;98593.53;5030818;28;20057;-81
2022/12/31 05:24:45;;;;;;;0.65;0.60;;;;;;;13.69;81.18;98589.94;5030835;28;20053;-81
2022/12/31 05:27:11;;;;;;;0.95;0.95;;;;;;;13.69;80.99;98579.38;5030520;28;20516;-81
2022/12/31 05:29:37;;;;;;;0.82;0.82;;;;;;;13.69;81.08;98589.94;5013039;28;20061;-80
2022/12/31 05:32:04;;;;;;;0.80;0.70;;;;;;;13.71;81.10;98600.41;5012907;28;20057;-81
2022/12/31 05:34:30;;;;;;;0.50;0.50;;;;;;;13.70;81.13;98596.06;5012402;28;20095;-81
2022/12/31 05:36:57;;;;;;;0.40;0.40;;;;;;;13.70;80.95;98603.97;5030517;28;20049;-81
2022/12/31 05:39:23;;;;;;;0.60;0.60;;;;;;;13.69;81.34;98603.16;5030633;28;20057;-81
2022/12/31 05:41:49;;;;;;;0.40;0.40;;;;;;;13.70;80.99;98606.63;5030507;28;20065;-81
2022/12/31 05:44:16;;;;;;;0.75;0.60;;;;;;;13.70;81.14;98606.63;5012891;28;20054;-81
2022/12/31 05:46:42;;;;;;;0.40;0.40;;;;;;;13.70;81.17;98596.06;5011714;28;20053;-81
2022/12/31 05:49:08;;;;;;;0.30;0.30;;;;;;;13.71;81.03;98600.41;5030345;28;20057;-81
2022/12/31 05:51:35;;;;;;;0.50;0.38;;;;;;;13.68;81.14;98602.31;5012331;28;20064;-81
2022/12/31 05:54:01;;;;;;;0.30;0.30;;;;;;;13.71;81.24;98600.41;5012252;28;20442;-81
2022/12/31 05:56:28;;;;;;;0.57;0.28;;;;;;;13.70;81.04;98602.19;5029867;28;20053;-81
2022/12/31 05:58:54;;;;;;;1.35;0.30;;;;;;;13.71;81.18;98587.16;5030165;28;20530;-81
2022/12/31 06:01:21;;;;;;;0.40;0.30;;;;;;;13.70;81.20;98596.91;5029761;28;20057;-81
2022/12/31 06:03:48;;;;;;;0.30;0.30;;;;;;;13.71;81.24;98584.53;5029948;28;20049;-81
2022/12/31 06:06:14;;;;;;;0.38;0.22;;;;;;;13.71;81.21;98593.28;5012589;28;20058;-80
2022/12/31 06:08:41;;;;;;;0.20;0.20;;;;;;;13.73;81.17;98607.22;5012673;28;20061;-81
2022/12/31 06:11:07;;;;;;;0.40;0.40;;;;;;;13.74;81.25;98610.69;5029662;28;20049;-81
2022/12/31 06:13:34;;;;;;;0.22;0.22;;;;;;;13.73;80.97;98606.38;5012511;28;20060;-81
2022/12/31 06:16:05;;;;;;;0.50;0.40;;;;;;;13.73;80.95;98616.94;5012134;28;20087;-81
2022/12/31 06:18:31;;;;;;;0.30;0.30;;;;;;;13.74;81.18;98613.31;5029970;28;20053;-81
2022/12/31 06:20:58;;;;;;;0.38;0.20;;;;;;;13.73;81.31;98612.50;5029946;28;20058;-81
2022/12/31 06:23:24;;;;;;;0.50;0.50;;;;;;;13.75;81.28;98618.47;5029760;28;20471;-81
2022/12/31 06:25:51;;;;;;;0.25;0.25;;;;;;;13.74;81.22;98619.47;5029720;28;20545;-81
2022/12/31 06:28:17;;;;;;;0.32;0.32;;;;;;;13.73;81.19;98615.16;5029571;28;20528;-81
2022/12/31 06:30:46;;;;;;;0.40;0.40;;;;;;;13.73;81.19;98604.56;5029619;28;20811;-81
2022/12/31 06:33:12;;;;;;;0.40;0.40;;;;;;;13.75;81.16;98615.00;5029671;28;20062;-81
2022/12/31 06:35:39;;;;;;;1.88;0.57;;;;;;;13.74;81.11;98632.69;5029639;28;20049;-81
2022/12/31 06:38:05;;;;;;;0.68;0.68;;;;;;;13.75;81.12;98620.31;5029528;28;20065;-81
2022/12/31 06:40:32;;;;;;;0.90;0.90;;;;;;;13.75;81.35;98641.47;5029574;28;20470;-81
2022/12/31 06:42:58;;;;;;;0.77;0.77;;;;;;;13.75;81.46;98639.63;5009789;28;20107;-82
2022/12/31 06:45:25;;;;;;;0.65;0.60;;;;;;;13.76;81.54;98632.56;5028797;28;20107;-82
2022/12/31 06:47:52;;;;;;;0.70;0.70;;;;;;;13.75;81.46;98629.06;5011593;28;20503;-81
2022/12/31 06:50:18;;;;;;;1.98;0.70;;;;;;;13.77;81.29;98655.38;5011940;28;20054;-81
2022/12/31 06:52:45;;;;;;;0.90;0.90;;;;;;;13.78;81.58;98657.88;5029400;28;20100;-80
2022/12/31 06:55:12;;;;;;;0.85;0.85;;;;;;;13.78;81.69;98649.09;5028923;28;20056;-80
2022/12/31 06:57:39;;;;;;;1.00;1.00;;;;;;;13.79;81.72;98638.41;5011647;28;20111;-81
2022/12/31 07:00:06;;;;;;;1.23;1.00;;;;;;;13.80;81.48;98636.59;5015551;28;20053;-81
2022/12/31 07:02:54;;;;;;;1.15;1.05;;;;;;;13.78;81.30;98638.53;5033053;28;20061;-81
2022/12/31 07:05:54;;;;;;;1.42;1.33;;;;;;;13.78;81.34;98626.16;5015038;28;20503;-81
2022/12/31 07:08:45;;;;;;;1.80;1.70;;;;;;;13.78;81.16;98633.22;5018919;28;20123;-81
2022/12/31 07:11:22;;;;;;;1.63;1.52;;;;;;;13.79;81.01;98621.69;5032807;28;20053;-81
2022/12/31 07:13:58;;;;;;;1.55;1.45;;;;;;;13.83;81.01;98627.56;5033426;28;20057;-81
2022/12/31 07:16:49;;;;;;;1.52;1.42;;;;;;;13.76;81.23;98617.50;5032330;28;20060;-81
2022/12/31 07:19:35;;;;;;;1.40;1.30;;;;;;;13.82;81.37;98632.00;5015525;28;20057;-81
2022/12/31 07:22:02;;;;;;;0.90;0.90;;;;;;;13.79;81.52;98643.69;5015077;28;20123;-82
2022/12/31 07:24:29;;;;;;;1.30;1.20;;;;;;;13.79;81.70;98643.69;5032964;28;20058;-81
2022/12/31 07:27:11;;;;;;;1.35;1.23;;;;;;;13.76;81.58;98643.13;5014684;28;20049;-81
2022/12/31 07:29:56;;;;;;;1.02;1.02;;;;;;;13.76;81.44;98638.66;5032888;28;20268;-81
2022/12/31 07:32:44;;;;;;;1.38;1.27;;;;;;;13.74;81.57;98626.53;5014893;28;20084;-81
2022/12/31 07:35:43;;;;;;;1.20;1.10;;;;;;;13.76;81.72;98633.38;5032367;28;20503;-81
2022/12/31 07:38:23;;;;;;;1.60;1.27;;;;;;;13.76;82.05;98633.38;5032598;28;20062;-81
2022/12/31 07:41:27;;;;;;;1.20;1.10;;;;;;;13.78;81.91;98646.47;5032807;28;20126;-81
2022/12/31 07:44:03;;;;;;;0.93;0.93;;;;;;;13.80;82.05;98642.72;5014943;28;20061;-82
2022/12/31 07:46:48;;;;;;;1.52;1.00;;;;;;;13.85;82.75;98646.75;5032819;28;20057;-81
2022/12/31 07:49:15;;;;;;;0.70;0.70;;;;;;;13.87;82.94;98650.94;5014933;28;20057;-81
2022/12/31 07:51:42;;;;;;;0.98;0.98;;;;;;;13.89;83.04;98638.41;5032163;28;20069;-81
2022/12/31 07:54:08;;;;;;;1.02;0.98;;;;;;;13.93;83.50;98642.47;5032406;28;20054;-82
2022/12/31 07:56:40;;;;;;;0.98;0.93;;;;;;;14.00;83.70;98650.69;5032329;28;20049;-82
2022/12/31 07:59:13;;;;;;;1.00;0.90;;;;;;;14.05;83.90;98647.63;5032299;28;20057;-82
2022/12/31 08:01:50;;;;;;;0.68;0.68;;;;;;;14.09;83.71;98658.78;5015493;28;20061;-82
2022/12/31 08:04:31;;;;;;;1.42;0.93;;;;;;;14.13;83.77;98657.53;5032016;28;20508;-81
2022/12/31 08:07:30;;;;;;;0.70;0.70;;;;;;;14.18;83.77;98664.09;5032085;28;20110;-82
2022/12/31 08:10:38;;;;;;;1.02;1.02;;;;;;;14.23;83.74;98645.13;5030940;28;20068;-82
2022/12/31 08:13:09;;;;;;;0.90;0.77;;;;;;;14.32;83.95;98648.78;5011169;28;20061;-82
2022/12/31 08:15:37;;;;;;;1.08;0.80;;;;;;;14.38;83.70;98653.50;5014012;28;20058;-82
2022/12/31 08:18:04;;;;;;;1.73;1.08;;;;;;;14.40;83.83;98654.22;5014710;28;20053;-82
2022/12/31 08:20:36;;;;;;;3.08;0.98;;;;;;;14.43;83.93;98653.91;5032530;28;20061;-82
2022/12/31 08:23:05;;;;;;;1.23;0.90;;;;;;;14.51;83.87;98655.03;5014567;28;20057;-82
2022/12/31 08:26:29;;;;;;;1.83;0.80;;;;;;;14.51;83.84;98657.69;5015243;28;20057;-81
2022/12/31 08:29:06;;;;;;;0.98;0.80;;;;;;;14.58;83.56;98654.31;4988470;28;20505;-81
2022/12/31 08:32:03;;;;;;;2.05;1.10;;;;;;;14.62;83.38;98646.09;4989594;28;20093;-81
2022/12/31 08:35:01;;;;;;;3.05;1.48;;;;;;;14.66;83.48;98653.59;5021011;28;20136;-81
2022/12/31 08:37:40;;;;;;;2.15;1.10;;;;;;;14.68;83.23;98654.31;5031553;28;20093;-81
2022/12/31 08:40:18;;;;;;;2.53;1.10;;;;;;;14.70;83.27;98657.63;5031576;28;20415;-81
2022/12/31 08:43:00;;;;;;;1.55;0.90;;;;;;;14.76;83.40;98650.13;5013578;28;20076;-81
2022/12/31 08:45:46;;;;;;;1.63;1.00;;;;;;;14.78;83.32;98658.78;5013446;28;20049;-81
2022/12/31 08:48:25;;;;;;;1.77;0.90;;;;;;;14.82;83.55;98649.56;5012960;28;20557;-81
2022/12/31 08:50:53;;;;;;;3.65;1.10;;;;;;;14.85;83.70;98666.00;5031361;28;20054;-81
2022/12/31 08:53:19;;;;;;;2.20;0.85;;;;;;;14.87;84.03;98657.13;5030922;28;20068;-81
2022/12/31 08:55:51;;;;;;;2.60;1.10;;;;;;;14.88;83.98;98654.28;5030957;28;20108;-81
2022/12/31 08:59:03;;;;;;;5.03;1.10;;;;;;;14.89;83.99;98661.28;5013312;28;20514;-81
2022/12/31 09:01:42;;;;;;;4.03;1.20;;;;;;;14.98;84.46;98670.19;5012912;28;20081;-81
2022/12/31 09:04:32;;;;;;;2.13;1.02;;;;;;;15.01;84.20;98663.75;5013243;28;20139;-80
2022/12/31 09:07:02;;;;;;;5.05;1.00;;;;;;;15.14;84.35;98647.56;5030475;28;20072;-80
2022/12/31 09:09:43;;;;;;;4.82;0.88;;;;;;;15.15;84.33;98641.25;5030874;28;20069;-80
2022/12/31 09:12:21;;;;;;;5.28;0.90;;;;;;;15.19;84.20;98648.78;5013107;28;20118;-80
2022/12/31 09:15:19;;;;;;;4.45;1.33;;;;;;;15.21;84.22;98668.03;5030567;28;20053;-80
2022/12/31 09:17:48;;;;;;;3.95;1.02;;;;;;;15.31;84.26;98661.84;5013547;28;20096;-80
2022/12/31 09:20:33;;;;;;;2.42;0.85;;;;;;;15.31;83.75;98660.06;5030467;28;20585;-79
2022/12/31 09:23:11;;;;;;;4.97;0.88;;;;;;;15.38;83.98;98655.00;5030909;28;20053;-80
2022/12/31 09:26:08;;;;;;;3.45;1.00;;;;;;;15.37;83.80;98661.28;5030663;28;20475;-80
2022/12/31 09:28:42;;;;;;;3.75;0.80;;;;;;;15.44;83.83;98672.16;5030527;28;20084;-80
2022/12/31 09:31:13;;;;;;;3.08;1.10;;;;;;;15.44;83.85;98666.84;5030223;28;20543;-80
2022/12/31 09:33:47;;;;;;;4.13;0.98;;;;;;;15.48;83.95;98670.88;5030431;28;20144;-80
2022/12/31 09:36:22;;;;;;;4.15;1.35;;;;;;;15.48;83.76;98677.00;5030014;28;20045;-80
2022/12/31 09:38:59;;;;;;;2.90;0.90;;;;;;;15.54;84.00;98696.78;5030032;28;20518;-80
2022/12/31 09:41:36;;;;;;;4.97;1.08;;;;;;;15.58;83.50;98750.38;5030279;28;20058;-80
2022/12/31 09:44:42;;;;;;;4.85;1.40;;;;;;;15.55;83.17;98748.84;5012540;28;20546;-80
2022/12/31 09:47:17;;;;;;;1.83;0.88;;;;;;;15.57;83.02;98754.03;5030009;28;20057;-80
2022/12/31 09:50:05;;;;;;;1.67;0.82;;;;;;;15.56;83.04;98752.34;5030107;28;20050;-80
2022/12/31 09:53:12;;;;;;;0.88;0.60;;;;;;;15.55;83.09;98767.41;5030040;28;20050;-80
2022/12/31 09:55:54;;;;;;;0.50;0.47;;;;;;;15.55;83.16;98775.38;5012289;28;20500;-80
2022/12/31 09:58:28;;;;;;;1.03;0.70;;;;;;;15.59;83.60;98776.75;5012028;28;20053;-80
2022/12/31 10:01:02;;;;;;;1.63;0.70;;;;;;;15.56;83.57;98782.38;5029850;28;20064;-80
2022/12/31 10:03:41;;;;;;;1.58;0.60;;;;;;;15.60;83.54;98791.72;5029709;28;20149;-80
2022/12/31 10:06:31;;;;;;;1.65;0.50;;;;;;;15.54;82.77;98804.69;5029940;28;20053;-80
2022/12/31 10:09:09;;;;;;;2.28;0.60;;;;;;;15.54;82.14;98816.16;5029735;28;20061;-80
2022/12/31 10:11:54;;;;;;;1.30;0.30;;;;;;;15.50;81.36;98831.53;5029645;28;20049;-80
2022/12/31 10:14:39;;;;;;;1.05;0.30;;;;;;;15.48;81.41;98830.81;5029580;28;20111;-79
2022/12/31 10:17:31;;;;;;;0.28;0.28;;;;;;;15.42;81.09;98844.66;5012946;28;20055;-80
2022/12/31 10:20:27;;;;;;;0.50;0.40;;;;;;;15.36;80.81;98859.31;5028954;28;20057;-79
2022/12/31 10:23:27;;;;;;;0.47;0.40;;;;;;;15.30;80.81;98843.13;5030156;28;20049;-79
2022/12/31 10:26:09;;;;;;;0.52;0.35;;;;;;;15.27;81.74;98835.44;5029201;28;20112;-80
2022/12/31 10:29:08;;;;;;;0.40;0.25;;;;;;;15.21;81.98;98837.69;5029641;28;20053;-80
2022/12/31 10:31:56;;;;;;;1.02;0.60;;;;;;;15.19;82.24;98837.00;5029431;28;20064;-79
2022/12/31 10:34:46;;;;;;;0.98;0.47;;;;;;;15.14;82.44;98825.97;5035449;28;20503;-80
2022/12/31 10:37:28;;;;;;;0.40;0.40;;;;;;;15.14;82.76;98841.88;5036133;28;20078;-80
2022/12/31 10:39:54;;;;;;;0.97;0.60;;;;;;;15.19;83.33;98829.06;5036152;28;20053;-80
2022/12/31 10:42:37;;;;;;;1.40;0.40;;;;;;;15.17;82.86;98833.63;5017955;28;20061;-80
2022/12/31 10:45:41;;;;;;;1.90;0.50;;;;;;;15.20;82.62;98836.03;5035649;28;20057;-80
2022/12/31 10:48:51;;;;;;;1.42;0.43;;;;;;;15.23;82.72;98835.75;5035832;28;20050;-80
2022/12/31 10:51:24;;;;;;;0.38;0.38;;;;;;;15.34;83.69;98844.53;5035795;28;20504;-80
2022/12/31 10:53:59;;;;;;;0.88;0.40;;;;;;;15.34;83.07;98839.22;5036037;28;20381;-80
2022/12/31 10:56:56;;;;;;;0.50;0.50;;;;;;;15.35;82.82;98835.59;5035913;28;20057;-80
2022/12/31 11:00:00;;;;;;;0.60;0.50;;;;;;;15.39;82.55;98833.50;5036244;28;20064;-80
2022/12/31 11:05:24;;;;;;;1.90;0.68;;;;;;;15.47;82.69;98842.41;5085220;23;20085;-78
2022/12/31 11:08:22;;;;;;;2.60;0.82;;;;;;;15.50;82.28;98854.53;5016606;28;20096;-78
2022/12/31 11:11:15;;;;;;;3.00;0.85;;;;;;;15.52;82.37;98841.16;4999540;28;20076;-77
2022/12/31 11:13:48;;;;;;;2.20;0.65;;;;;;;15.57;82.58;98837.09;5017040;28;20054;-77
2022/12/31 11:16:50;;;;;;;1.35;0.60;;;;;;;15.53;82.30;98833.06;5016323;28;20056;-77
2022/12/31 11:19:37;;;;;;;1.85;0.68;;;;;;;15.55;82.40;98825.78;4992501;28;20058;-77
2022/12/31 11:22:35;;;;;;;1.17;0.57;;;;;;;15.55;82.49;98824.97;5016924;28;20053;-77
2022/12/31 11:25:11;;;;;;;2.92;0.90;;;;;;;15.57;82.58;98846.84;5016099;28;20145;-79
2022/12/31 11:27:58;;;;;;;3.22;1.20;;;;;;;15.57;82.98;98828.28;5016442;28;20060;-78
2022/12/31 11:30:52;;;;;;;7.00;0.90;;;;;;;15.60;83.27;98825.34;4998974;28;20053;-77
2022/12/31 11:33:54;;;;;;;2.47;1.00;;;;;;;15.63;83.01;98825.91;5016507;28;20054;-77
2022/12/31 11:36:41;;;;;;;2.80;1.00;;;;;;;15.69;83.08;98818.34;5016303;28;20127;-78
2022/12/31 11:39:38;;;;;;;3.38;1.33;;;;;;;15.72;82.59;98834.81;5016708;28;20137;-77
2022/12/31 11:42:33;;;;;;;2.28;0.90;;;;;;;15.75;82.57;98821.25;5016503;28;20062;-78
2022/12/31 11:44:59;;;;;;;4.32;1.25;;;;;;;15.83;83.75;98817.03;5014372;28;20057;-79
2022/12/31 11:47:41;;;;;;;3.50;0.95;;;;;;;15.83;82.86;98807.28;5012829;28;20058;-78
2022/12/31 11:50:48;;;;;;;3.42;1.02;;;;;;;15.88;82.74;98805.03;5013578;28;20115;-78
2022/12/31 11:53:42;;;;;;;2.80;0.77;;;;;;;15.89;81.99;98806.69;4996140;28;20057;-78
2022/12/31 11:56:23;;;;;;;2.35;0.85;;;;;;;15.93;82.23;98812.56;5012976;28;20496;-78
2022/12/31 11:58:54;;;;;;;2.30;1.08;;;;;;;15.95;81.73;98815.91;5013105;28;20066;-78
2022/12/31 12:01:29;;;;;;;5.10;1.13;;;;;;;15.99;82.55;98813.81;5013578;28;20054;-78
2022/12/31 12:04:08;;;;;;;4.55;1.10;;;;;;;15.99;81.85;98806.69;5013117;28;20595;-79
2022/12/31 12:06:44;;;;;;;4.20;1.25;;;;;;;16.03;82.32;98807.22;5012344;28;20046;-78
2022/12/31 12:09:25;;;;;;;8.15;1.42;;;;;;;16.01;81.23;98820.63;5013215;28;20140;-78
2022/12/31 12:12:01;;;;;;;3.58;1.60;;;;;;;16.03;81.58;98809.88;5013101;28;20541;-79
2022/12/31 12:14:42;;;;;;;3.65;1.42;;;;;;;16.02;81.50;98800.25;5012829;28;20104;-79
2022/12/31 12:17:16;;;;;;;3.53;1.40;;;;;;;16.05;81.54;98801.78;5012110;28;20050;-77
2022/12/31 12:19:46;;;;;;;4.03;1.05;;;;;;;16.08;82.13;98790.88;5012817;28;20069;-78
2022/12/31 12:22:20;;;;;;;7.50;1.67;;;;;;;16.07;81.25;98791.84;5012992;28;20046;-78
2022/12/31 12:25:01;;;;;;;4.15;1.40;;;;;;;16.10;81.53;98788.88;5011415;28;20049;-79
2022/12/31 12:27:30;;;;;;;3.53;1.20;;;;;;;16.14;82.14;98783.16;5012166;28;20145;-79
2022/12/31 12:29:56;;;;;;;4.32;1.48;;;;;;;16.18;82.27;98801.44;5012745;28;20168;-79
2022/12/31 12:32:25;;;;;;;2.80;1.17;;;;;;;16.20;82.19;98802.13;4995542;28;20064;-78
2022/12/31 12:34:52;;;;;;;3.33;1.30;;;;;;;16.24;82.09;98793.72;5012300;28;20093;-78
2022/12/31 12:37:34;;;;;;;7.05;1.60;;;;;;;16.22;79.58;98806.28;5012009;28;20161;-79
2022/12/31 12:40:22;;;;;;;3.83;1.40;;;;;;;16.27;78.87;98803.22;4995007;28;20062;-79
2022/12/31 12:42:58;;;;;;;6.22;1.30;;;;;;;16.37;81.32;98798.66;5012339;28;20057;-77
2022/12/31 12:45:28;;;;;;;5.78;1.45;;;;;;;16.42;81.13;98790.25;5012115;28;20088;-78
2022/12/31 12:48:01;;;;;;;4.65;1.40;;;;;;;16.44;79.06;98793.59;5011941;28;20054;-79
2022/12/31 12:50:40;;;;;;;5.00;1.50;;;;;;;16.47;78.68;98803.94;5012248;28;20066;-79
2022/12/31 12:53:25;;;;;;;5.63;1.48;;;;;;;16.54;80.62;98802.34;5012356;28;20140;-78
2022/12/31 12:56:09;;;;;;;6.97;1.42;;;;;;;16.56;78.47;98791.56;5011528;28;20092;-79
2022/12/31 12:58:39;;;;;;;7.10;1.60;;;;;;;16.60;80.02;98810.72;5011560;28;20057;-77
2022/12/31 13:01:23;;;;;;;5.13;1.35;;;;;;;16.63;79.84;98802.44;5012581;28;20053;-78
2022/12/31 13:04:16;;;;;;;6.07;1.20;;;;;;;16.62;76.93;98808.72;4994340;28;20491;-78
2022/12/31 13:07:18;;;;;;;5.03;1.80;;;;;;;16.66;75.74;98799.47;5010666;28;20050;-79
2022/12/31 13:09:58;;;;;;;7.93;1.60;;;;;;;16.69;75.99;98807.13;5011966;28;20096;-80
2022/12/31 13:12:31;;;;;;;4.70;1.48;;;;;;;16.74;77.59;98810.19;5012071;28;20133;-79
2022/12/31 13:15:29;;;;;;;5.97;1.40;;;;;;;16.78;75.73;98805.38;4996682;28;20081;-80
2022/12/31 13:18:28;;;;;;;3.35;1.20;;;;;;;16.81;76.69;98807.75;5011731;28;20097;-80
2022/12/31 13:21:17;;;;;;;4.22;1.30;;;;;;;16.83;74.65;98837.69;4988638;28;20058;-79
2022/12/31 13:23:56;;;;;;;5.40;1.60;;;;;;;16.87;75.50;98831.09;4994301;28;20049;-78
2022/12/31 13:26:43;;;;;;;5.25;1.58;;;;;;;16.84;74.90;98839.34;5011431;28;20116;-78
2022/12/31 13:29:19;;;;;;;6.00;1.20;;;;;;;16.83;75.21;98839.50;4994176;28;20496;-79
2022/12/31 13:31:48;;;;;;;4.70;1.35;;;;;;;16.82;76.53;98821.88;5011607;28;20491;-78
2022/12/31 13:34:21;;;;;;;4.25;1.42;;;;;;;16.77;76.81;98831.13;5011326;28;20068;-78
2022/12/31 13:36:49;;;;;;;5.72;1.50;;;;;;;16.71;76.86;98815.78;5010659;28;20050;-78
2022/12/31 13:39:40;;;;;;;6.45;1.50;;;;;;;16.58;76.15;98821.47;4994296;28;20064;-79
2022/12/31 13:42:43;;;;;;;7.57;1.80;;;;;;;16.49;75.78;98833.81;5011242;28;20049;-80
2022/12/31 13:45:15;;;;;;;7.78;1.80;;;;;;;16.49;77.74;98825.03;4979177;28;20050;-79
2022/12/31 13:47:57;;;;;;;4.22;1.20;;;;;;;16.39;77.30;98815.31;5020975;28;20058;-79
2022/12/31 13:50:33;;;;;;;10.85;1.80;;;;;;;16.36;77.46;98828.88;5031004;28;20137;-78
2022/12/31 13:53:14;;;;;;;5.10;1.20;;;;;;;16.32;77.92;98830.16;5030930;28;20050;-78
2022/12/31 13:55:50;;;;;;;4.05;1.40;;;;;;;16.30;78.11;98825.97;5030698;28;20054;-78
2022/12/31 13:58:44;;;;;;;4.20;1.50;;;;;;;16.27;78.34;98817.31;5030449;28;20061;-79
2022/12/31 14:01:21;;;;;;;4.72;1.40;;;;;;;16.27;78.89;98838.53;5030768;28;20085;-77
2022/12/31 14:04:25;;;;;;;3.22;1.23;;;;;;;16.23;78.44;98817.75;5030590;28;20049;-78
2022/12/31 14:07:13;;;;;;;6.95;1.85;;;;;;;16.22;78.03;98853.28;5030072;28;20149;-77
2022/12/31 14:09:41;;;;;;;5.75;1.40;;;;;;;16.23;79.58;98825.72;5012735;28;20387;-78
2022/12/31 14:12:34;;;;;;;5.70;1.38;;;;;;;16.21;79.29;98831.19;5030919;28;20084;-78
2022/12/31 14:15:25;;;;;;;4.93;1.25;;;;;;;16.20;78.60;98833.97;5030295;28;20057;-78
2022/12/31 14:18:00;;;;;;;6.25;1.45;;;;;;;16.23;78.71;98846.97;5029995;28;20051;-78
2022/12/31 14:20:46;;;;;;;4.18;1.33;;;;;;;16.21;78.42;98848.91;5030752;28;20056;-78
2022/12/31 14:23:43;;;;;;;2.95;1.20;;;;;;;16.24;78.50;98856.59;5030617;28;20477;-78
2022/12/31 14:26:26;;;;;;;3.60;1.30;;;;;;;16.24;79.12;98859.25;4992983;28;20145;-77
2022/12/31 14:29:12;;;;;;;10.07;1.58;;;;;;;16.24;78.08;98861.91;5012890;28;20151;-78
2022/12/31 14:31:48;;;;;;;4.25;1.50;;;;;;;16.24;77.94;98864.56;5030554;28;20081;-77
2022/12/31 14:34:17;;;;;;;4.18;1.35;;;;;;;16.26;78.98;98860.78;5029768;28;20126;-77
2022/12/31 14:37:02;;;;;;;4.13;1.67;;;;;;;16.23;77.97;98868.22;5029715;28;20099;-79
2022/12/31 14:39:35;;;;;;;4.40;1.25;;;;;;;16.27;79.05;98864.28;5030368;28;20075;-79
2022/12/31 14:42:08;;;;;;;2.85;1.33;;;;;;;16.24;78.44;98862.75;5030273;28;20128;-78
2022/12/31 14:44:49;;;;;;;6.15;1.83;;;;;;;16.24;78.55;98875.19;5030401;28;20478;-79
2022/12/31 14:47:19;;;;;;;3.60;1.75;;;;;;;16.25;78.89;98887.47;5030105;28;20061;-77
2022/12/31 14:50:10;;;;;;;6.03;2.03;;;;;;;16.19;77.43;98891.56;5030344;28;20148;-78
2022/12/31 14:52:46;;;;;;;8.20;1.88;;;;;;;16.20;78.46;98893.25;5018992;28;20046;-79
2022/12/31 14:55:13;;;;;;;2.78;1.30;;;;;;;16.23;79.40;98884.16;5030087;28;20089;-78
2022/12/31 14:57:44;;;;;;;4.88;1.70;;;;;;;16.22;79.35;98896.56;5029663;28;20115;-79
2022/12/31 15:00:33;;;;;;;3.63;1.38;;;;;;;16.22;78.83;98901.06;5030485;28;20053;-78